sensor_id;sensor_type;location;lat;lon;timestamp;temperature;humidity
21580;DHT22;10951;59.656;9.666;2023-09-12T00:00:48;17.10;99.90
21580;DHT22;10951;59.656;9.666;2023-09-12T00:03:19;17.20;99.90
21580;DHT22;10951;59.656;9.666;2023-09-12T00:05:54;17.10;99.90
21580;DHT22;10951;59.656;9.666;2023-09-12T00:08:22;17.10;99.90
21580;DHT22;10951;59.656;9.666;2023-09-12T00:11:06;17.10;99.90
21580;DHT22;10951;59.656;9.666;2023-09-12T00:13:38;17.10;99.90
21580;DHT22;10951;59.656;9.666;2023-09-12T00:16:05;17.00;99.90
21580;DHT22;10951;59.656;9.666;2023-09-12T00:18:33;17.00;99.90
21580;DHT22;10951;59.656;9.666;2023-09-12T00:21:02;17.00;99.90
21580;DHT22;10951;59.656;9.666;2023-09-12T00:23:30;17.10;99.90
21580;DHT22;10951;59.656;9.666;2023-09-12T00:25:57;17.00;99.90
21580;DHT22;10951;59.656;9.666;2023-09-12T00:28:24;17.00;99.90
21580;DHT22;10951;59.656;9.666;2023-09-12T00:30:52;17.00;99.90
21580;DHT22;10951;59.656;9.666;2023-09-12T00:33:19;17.00;99.90
21580;DHT22;10951;59.656;9.666;2023-09-12T00:35:46;17.00;99.90
21580;DHT22;10951;59.656;9.666;2023-09-12T00:38:13;17.10;99.90
21580;DHT22;10951;59.656;9.666;2023-09-12T00:40:40;17.10;99.90
21580;DHT22;10951;59.656;9.666;2023-09-12T00:43:07;17.00;99.90
21580;DHT22;10951;59.656;9.666;2023-09-12T00:45:35;17.00;99.90
21580;DHT22;10951;59.656;9.666;2023-09-12T00:48:03;17.10;99.90
21580;DHT22;10951;59.656;9.666;2023-09-12T00:50:32;17.10;99.90
21580;DHT22;10951;59.656;9.666;2023-09-12T00:52:59;17.10;99.90
21580;DHT22;10951;59.656;9.666;2023-09-12T00:55:29;17.20;99.90
21580;DHT22;10951;59.656;9.666;2023-09-12T00:57:58;17.20;99.90
21580;DHT22;10951;59.656;9.666;2023-09-12T01:00:25;17.20;99.90
21580;DHT22;10951;59.656;9.666;2023-09-12T01:02:52;17.20;99.90
21580;DHT22;10951;59.656;9.666;2023-09-12T01:05:22;17.20;99.90
21580;DHT22;10951;59.656;9.666;2023-09-12T01:07:49;17.10;99.90
21580;DHT22;10951;59.656;9.666;2023-09-12T01:10:17;17.10;99.90
21580;DHT22;10951;59.656;9.666;2023-09-12T01:12:45;17.00;99.90
21580;DHT22;10951;59.656;9.666;2023-09-12T01:15:12;17.00;99.90
21580;DHT22;10951;59.656;9.666;2023-09-12T01:17:45;17.00;99.90
21580;DHT22;10951;59.656;9.666;2023-09-12T01:20:16;16.90;99.90
21580;DHT22;10951;59.656;9.666;2023-09-12T01:23:00;16.80;99.90
21580;DHT22;10951;59.656;9.666;2023-09-12T01:28:33;16.70;99.90
21580;DHT22;10951;59.656;9.666;2023-09-12T01:31:04;16.70;99.90
21580;DHT22;10951;59.656;9.666;2023-09-12T01:33:32;16.70;99.90
21580;DHT22;10951;59.656;9.666;2023-09-12T01:35:59;16.70;99.90
21580;DHT22;10951;59.656;9.666;2023-09-12T01:38:26;16.70;99.90
21580;DHT22;10951;59.656;9.666;2023-09-12T01:40:55;16.60;99.90
21580;DHT22;10951;59.656;9.666;2023-09-12T01:43:23;16.70;99.90
21580;DHT22;10951;59.656;9.666;2023-09-12T01:45:54;16.60;99.90
21580;DHT22;10951;59.656;9.666;2023-09-12T01:48:24;16.60;99.90
21580;DHT22;10951;59.656;9.666;2023-09-12T01:50:54;16.60;99.90
21580;DHT22;10951;59.656;9.666;2023-09-12T01:53:21;16.50;99.90
21580;DHT22;10951;59.656;9.666;2023-09-12T01:55:49;16.40;99.90
21580;DHT22;10951;59.656;9.666;2023-09-12T01:58:16;16.30;99.90
21580;DHT22;10951;59.656;9.666;2023-09-12T02:00:43;16.30;99.90
21580;DHT22;10951;59.656;9.666;2023-09-12T02:03:10;16.20;99.90
21580;DHT22;10951;59.656;9.666;2023-09-12T02:05:38;16.10;99.90
21580;DHT22;10951;59.656;9.666;2023-09-12T02:08:05;16.10;99.90
21580;DHT22;10951;59.656;9.666;2023-09-12T02:10:34;16.20;99.90
21580;DHT22;10951;59.656;9.666;2023-09-12T02:13:01;16.10;99.90
21580;DHT22;10951;59.656;9.666;2023-09-12T02:15:28;16.00;99.90
21580;DHT22;10951;59.656;9.666;2023-09-12T02:17:55;16.00;99.90
21580;DHT22;10951;59.656;9.666;2023-09-12T02:20:22;15.90;99.90
21580;DHT22;10951;59.656;9.666;2023-09-12T02:22:49;15.90;99.90
21580;DHT22;10951;59.656;9.666;2023-09-12T02:25:17;15.90;99.90
21580;DHT22;10951;59.656;9.666;2023-09-12T02:27:47;15.80;99.90
21580;DHT22;10951;59.656;9.666;2023-09-12T02:30:14;15.70;99.90
21580;DHT22;10951;59.656;9.666;2023-09-12T02:32:44;15.70;99.90
21580;DHT22;10951;59.656;9.666;2023-09-12T02:35:11;15.70;99.90
21580;DHT22;10951;59.656;9.666;2023-09-12T02:37:39;15.60;99.90
21580;DHT22;10951;59.656;9.666;2023-09-12T02:40:06;15.70;99.90
21580;DHT22;10951;59.656;9.666;2023-09-12T02:42:33;15.80;99.90
21580;DHT22;10951;59.656;9.666;2023-09-12T02:45:00;15.70;99.90
21580;DHT22;10951;59.656;9.666;2023-09-12T02:47:28;15.70;99.90
21580;DHT22;10951;59.656;9.666;2023-09-12T02:49:55;15.70;99.90
21580;DHT22;10951;59.656;9.666;2023-09-12T02:52:22;15.70;99.90
21580;DHT22;10951;59.656;9.666;2023-09-12T02:54:49;15.60;99.90
21580;DHT22;10951;59.656;9.666;2023-09-12T02:57:16;15.70;99.90
21580;DHT22;10951;59.656;9.666;2023-09-12T02:59:44;15.70;99.90
21580;DHT22;10951;59.656;9.666;2023-09-12T03:02:11;15.70;99.90
21580;DHT22;10951;59.656;9.666;2023-09-12T03:04:38;15.70;99.90
21580;DHT22;10951;59.656;9.666;2023-09-12T03:07:05;15.70;99.90
21580;DHT22;10951;59.656;9.666;2023-09-12T03:09:33;15.70;99.90
21580;DHT22;10951;59.656;9.666;2023-09-12T03:12:04;15.90;99.90
21580;DHT22;10951;59.656;9.666;2023-09-12T03:14:33;15.90;99.90
21580;DHT22;10951;59.656;9.666;2023-09-12T03:17:00;15.90;99.90
21580;DHT22;10951;59.656;9.666;2023-09-12T03:19:29;16.00;99.90
21580;DHT22;10951;59.656;9.666;2023-09-12T03:21:57;16.00;99.90
21580;DHT22;10951;59.656;9.666;2023-09-12T03:24:24;16.00;99.90
21580;DHT22;10951;59.656;9.666;2023-09-12T03:26:52;16.10;99.90
21580;DHT22;10951;59.656;9.666;2023-09-12T03:29:19;16.10;99.90
21580;DHT22;10951;59.656;9.666;2023-09-12T03:31:47;16.10;99.90
21580;DHT22;10951;59.656;9.666;2023-09-12T03:34:14;16.10;99.90
21580;DHT22;10951;59.656;9.666;2023-09-12T03:36:41;16.10;99.90
21580;DHT22;10951;59.656;9.666;2023-09-12T03:39:08;16.20;99.90
21580;DHT22;10951;59.656;9.666;2023-09-12T03:41:35;16.10;99.90
21580;DHT22;10951;59.656;9.666;2023-09-12T03:44:03;16.10;99.90
21580;DHT22;10951;59.656;9.666;2023-09-12T03:46:30;16.10;99.90
21580;DHT22;10951;59.656;9.666;2023-09-12T03:48:58;16.10;99.90
21580;DHT22;10951;59.656;9.666;2023-09-12T03:51:25;16.20;99.90
21580;DHT22;10951;59.656;9.666;2023-09-12T03:53:52;16.20;99.90
21580;DHT22;10951;59.656;9.666;2023-09-12T03:56:19;16.20;99.90
21580;DHT22;10951;59.656;9.666;2023-09-12T03:58:47;16.20;99.90
21580;DHT22;10951;59.656;9.666;2023-09-12T04:01:14;16.30;99.90
21580;DHT22;10951;59.656;9.666;2023-09-12T04:03:41;16.20;99.90
21580;DHT22;10951;59.656;9.666;2023-09-12T04:06:09;16.20;99.90
21580;DHT22;10951;59.656;9.666;2023-09-12T04:08:37;16.10;99.90
21580;DHT22;10951;59.656;9.666;2023-09-12T04:11:04;16.10;99.90
21580;DHT22;10951;59.656;9.666;2023-09-12T04:13:31;16.00;99.90
21580;DHT22;10951;59.656;9.666;2023-09-12T04:15:58;16.00;99.90
21580;DHT22;10951;59.656;9.666;2023-09-12T04:18:26;16.10;99.90
21580;DHT22;10951;59.656;9.666;2023-09-12T04:20:53;16.10;99.90
21580;DHT22;10951;59.656;9.666;2023-09-12T04:23:26;16.10;99.90
21580;DHT22;10951;59.656;9.666;2023-09-12T04:25:53;16.10;99.90
21580;DHT22;10951;59.656;9.666;2023-09-12T04:28:21;16.10;99.90
21580;DHT22;10951;59.656;9.666;2023-09-12T04:30:48;16.20;99.90
21580;DHT22;10951;59.656;9.666;2023-09-12T04:33:15;16.20;99.90
21580;DHT22;10951;59.656;9.666;2023-09-12T04:35:42;16.10;99.90
21580;DHT22;10951;59.656;9.666;2023-09-12T04:38:09;16.10;99.90
21580;DHT22;10951;59.656;9.666;2023-09-12T04:40:36;16.20;99.90
21580;DHT22;10951;59.656;9.666;2023-09-12T04:43:04;16.30;99.90
21580;DHT22;10951;59.656;9.666;2023-09-12T04:45:33;16.30;99.90
21580;DHT22;10951;59.656;9.666;2023-09-12T04:48:00;16.20;99.90
21580;DHT22;10951;59.656;9.666;2023-09-12T04:50:28;16.20;99.90
21580;DHT22;10951;59.656;9.666;2023-09-12T04:52:55;16.20;99.90
21580;DHT22;10951;59.656;9.666;2023-09-12T04:55:22;16.20;99.90
21580;DHT22;10951;59.656;9.666;2023-09-12T04:57:49;16.20;99.90
21580;DHT22;10951;59.656;9.666;2023-09-12T05:00:17;16.20;99.90
21580;DHT22;10951;59.656;9.666;2023-09-12T05:02:44;16.20;99.90
21580;DHT22;10951;59.656;9.666;2023-09-12T05:05:11;16.20;99.90
21580;DHT22;10951;59.656;9.666;2023-09-12T05:07:38;16.20;99.90
21580;DHT22;10951;59.656;9.666;2023-09-12T05:10:05;16.20;99.90
21580;DHT22;10951;59.656;9.666;2023-09-12T05:12:33;16.20;99.90
21580;DHT22;10951;59.656;9.666;2023-09-12T05:15:00;16.20;99.90
21580;DHT22;10951;59.656;9.666;2023-09-12T05:17:27;16.30;99.90
21580;DHT22;10951;59.656;9.666;2023-09-12T05:19:55;16.30;99.90
21580;DHT22;10951;59.656;9.666;2023-09-12T05:22:22;16.40;99.90
21580;DHT22;10951;59.656;9.666;2023-09-12T05:24:49;16.40;99.90
21580;DHT22;10951;59.656;9.666;2023-09-12T05:27:16;16.40;99.90
21580;DHT22;10951;59.656;9.666;2023-09-12T05:29:43;16.40;99.90
21580;DHT22;10951;59.656;9.666;2023-09-12T05:32:10;16.50;99.90
21580;DHT22;10951;59.656;9.666;2023-09-12T05:34:37;16.40;99.90
21580;DHT22;10951;59.656;9.666;2023-09-12T05:37:04;16.50;99.90
21580;DHT22;10951;59.656;9.666;2023-09-12T05:39:32;16.50;99.90
21580;DHT22;10951;59.656;9.666;2023-09-12T05:41:58;16.50;99.90
21580;DHT22;10951;59.656;9.666;2023-09-12T05:44:25;16.50;99.90
21580;DHT22;10951;59.656;9.666;2023-09-12T05:46:53;16.50;99.90
21580;DHT22;10951;59.656;9.666;2023-09-12T05:49:20;16.50;99.90
21580;DHT22;10951;59.656;9.666;2023-09-12T05:51:48;16.50;99.90
21580;DHT22;10951;59.656;9.666;2023-09-12T05:54:15;16.60;99.90
21580;DHT22;10951;59.656;9.666;2023-09-12T05:56:43;16.60;99.90
21580;DHT22;10951;59.656;9.666;2023-09-12T05:59:10;16.60;99.90
21580;DHT22;10951;59.656;9.666;2023-09-12T06:01:37;16.60;99.90
21580;DHT22;10951;59.656;9.666;2023-09-12T06:04:04;16.60;99.90
21580;DHT22;10951;59.656;9.666;2023-09-12T06:06:32;16.70;99.90
21580;DHT22;10951;59.656;9.666;2023-09-12T06:08:59;16.60;99.90
21580;DHT22;10951;59.656;9.666;2023-09-12T06:11:26;16.60;99.90
21580;DHT22;10951;59.656;9.666;2023-09-12T06:13:53;16.60;99.90
21580;DHT22;10951;59.656;9.666;2023-09-12T06:16:20;16.60;99.90
21580;DHT22;10951;59.656;9.666;2023-09-12T06:18:47;16.60;99.90
21580;DHT22;10951;59.656;9.666;2023-09-12T06:21:15;16.60;99.90
21580;DHT22;10951;59.656;9.666;2023-09-12T06:23:42;16.60;99.90
21580;DHT22;10951;59.656;9.666;2023-09-12T06:26:09;16.60;99.90
21580;DHT22;10951;59.656;9.666;2023-09-12T06:28:36;16.60;99.90
21580;DHT22;10951;59.656;9.666;2023-09-12T06:31:04;16.50;99.90
21580;DHT22;10951;59.656;9.666;2023-09-12T06:33:34;16.50;99.90
21580;DHT22;10951;59.656;9.666;2023-09-12T06:36:01;16.50;99.90
21580;DHT22;10951;59.656;9.666;2023-09-12T06:38:29;16.50;99.90
21580;DHT22;10951;59.656;9.666;2023-09-12T06:40:56;16.40;99.40
21580;DHT22;10951;59.656;9.666;2023-09-12T06:43:23;16.30;98.90
21580;DHT22;10951;59.656;9.666;2023-09-12T06:45:50;16.30;99.00
21580;DHT22;10951;59.656;9.666;2023-09-12T06:48:18;16.30;97.90
21580;DHT22;10951;59.656;9.666;2023-09-12T06:50:45;16.30;97.50
21580;DHT22;10951;59.656;9.666;2023-09-12T06:53:18;16.30;97.20
21580;DHT22;10951;59.656;9.666;2023-09-12T06:55:45;16.30;97.60
21580;DHT22;10951;59.656;9.666;2023-09-12T06:58:12;16.30;97.70
21580;DHT22;10951;59.656;9.666;2023-09-12T07:00:39;16.40;97.40
21580;DHT22;10951;59.656;9.666;2023-09-12T07:03:06;16.40;96.30
21580;DHT22;10951;59.656;9.666;2023-09-12T07:05:36;16.40;95.70
21580;DHT22;10951;59.656;9.666;2023-09-12T07:08:04;16.30;95.50
21580;DHT22;10951;59.656;9.666;2023-09-12T07:10:31;16.30;95.80
21580;DHT22;10951;59.656;9.666;2023-09-12T07:12:58;16.30;94.40
21580;DHT22;10951;59.656;9.666;2023-09-12T07:15:25;16.30;93.90
21580;DHT22;10951;59.656;9.666;2023-09-12T07:17:52;16.30;93.90
21580;DHT22;10951;59.656;9.666;2023-09-12T07:20:19;16.30;93.50
21580;DHT22;10951;59.656;9.666;2023-09-12T07:22:47;16.20;93.90
21580;DHT22;10951;59.656;9.666;2023-09-12T07:25:14;16.30;93.80
21580;DHT22;10951;59.656;9.666;2023-09-12T07:27:41;16.30;93.30
21580;DHT22;10951;59.656;9.666;2023-09-12T07:30:08;16.40;93.20
21580;DHT22;10951;59.656;9.666;2023-09-12T07:32:35;16.50;92.50
21580;DHT22;10951;59.656;9.666;2023-09-12T07:35:03;16.60;92.60
21580;DHT22;10951;59.656;9.666;2023-09-12T07:37:30;16.80;91.80
21580;DHT22;10951;59.656;9.666;2023-09-12T07:39:57;16.70;91.40
21580;DHT22;10951;59.656;9.666;2023-09-12T07:42:24;16.70;92.00
21580;DHT22;10951;59.656;9.666;2023-09-12T07:44:51;16.80;91.10
21580;DHT22;10951;59.656;9.666;2023-09-12T07:47:19;16.80;91.60
21580;DHT22;10951;59.656;9.666;2023-09-12T07:49:52;16.80;91.00
21580;DHT22;10951;59.656;9.666;2023-09-12T07:52:19;16.90;91.40
21580;DHT22;10951;59.656;9.666;2023-09-12T07:54:46;16.90;90.70
21580;DHT22;10951;59.656;9.666;2023-09-12T07:57:13;17.10;90.90
21580;DHT22;10951;59.656;9.666;2023-09-12T07:59:40;17.20;88.50
21580;DHT22;10951;59.656;9.666;2023-09-12T08:02:07;17.30;90.20
21580;DHT22;10951;59.656;9.666;2023-09-12T08:04:35;17.50;88.20
21580;DHT22;10951;59.656;9.666;2023-09-12T08:07:02;17.70;84.30
21580;DHT22;10951;59.656;9.666;2023-09-12T08:09:52;17.80;87.30
21580;DHT22;10951;59.656;9.666;2023-09-12T08:12:20;17.90;86.70
21580;DHT22;10951;59.656;9.666;2023-09-12T08:14:48;17.90;84.50
21580;DHT22;10951;59.656;9.666;2023-09-12T08:17:15;18.00;85.30
21580;DHT22;10951;59.656;9.666;2023-09-12T08:19:42;18.00;86.80
21580;DHT22;10951;59.656;9.666;2023-09-12T08:22:10;17.90;83.20
21580;DHT22;10951;59.656;9.666;2023-09-12T08:24:38;17.90;84.20
21580;DHT22;10951;59.656;9.666;2023-09-12T08:27:06;17.80;82.00
21580;DHT22;10951;59.656;9.666;2023-09-12T08:29:34;17.70;86.70
21580;DHT22;10951;59.656;9.666;2023-09-12T08:32:01;17.70;85.30
21580;DHT22;10951;59.656;9.666;2023-09-12T08:34:28;17.80;85.70
21580;DHT22;10951;59.656;9.666;2023-09-12T08:36:55;17.70;85.50
21580;DHT22;10951;59.656;9.666;2023-09-12T08:39:27;17.70;83.90
21580;DHT22;10951;59.656;9.666;2023-09-12T08:41:54;17.70;83.50
21580;DHT22;10951;59.656;9.666;2023-09-12T08:44:22;17.70;82.30
21580;DHT22;10951;59.656;9.666;2023-09-12T08:46:49;17.70;82.00
21580;DHT22;10951;59.656;9.666;2023-09-12T08:49:16;17.80;83.30
21580;DHT22;10951;59.656;9.666;2023-09-12T08:51:43;18.00;80.10
21580;DHT22;10951;59.656;9.666;2023-09-12T08:54:11;18.00;79.20
21580;DHT22;10951;59.656;9.666;2023-09-12T08:56:41;18.00;80.20
21580;DHT22;10951;59.656;9.666;2023-09-12T08:59:10;18.00;77.10
21580;DHT22;10951;59.656;9.666;2023-09-12T09:01:37;17.90;76.90
21580;DHT22;10951;59.656;9.666;2023-09-12T09:04:05;17.80;79.00
21580;DHT22;10951;59.656;9.666;2023-09-12T09:06:34;17.80;77.70
21580;DHT22;10951;59.656;9.666;2023-09-12T09:09:05;17.80;78.20
21580;DHT22;10951;59.656;9.666;2023-09-12T09:11:34;17.80;79.40
21580;DHT22;10951;59.656;9.666;2023-09-12T09:14:04;17.90;79.30
21580;DHT22;10951;59.656;9.666;2023-09-12T09:16:31;18.00;78.00
21580;DHT22;10951;59.656;9.666;2023-09-12T09:19:05;18.10;76.00
21580;DHT22;10951;59.656;9.666;2023-09-12T09:21:37;18.20;74.80
21580;DHT22;10951;59.656;9.666;2023-09-12T09:24:07;18.10;71.50
21580;DHT22;10951;59.656;9.666;2023-09-12T09:27:01;18.00;71.60
21580;DHT22;10951;59.656;9.666;2023-09-12T09:29:28;18.00;72.40
21580;DHT22;10951;59.656;9.666;2023-09-12T09:32:00;17.90;71.00
21580;DHT22;10951;59.656;9.666;2023-09-12T09:34:32;17.90;72.10
21580;DHT22;10951;59.656;9.666;2023-09-12T09:37:02;17.90;72.30
21580;DHT22;10951;59.656;9.666;2023-09-12T09:39:29;17.90;76.60
21580;DHT22;10951;59.656;9.666;2023-09-12T09:41:57;18.00;75.20
21580;DHT22;10951;59.656;9.666;2023-09-12T09:44:26;18.10;76.80
21580;DHT22;10951;59.656;9.666;2023-09-12T09:47:02;18.30;77.20
21580;DHT22;10951;59.656;9.666;2023-09-12T09:49:32;18.30;76.50
21580;DHT22;10951;59.656;9.666;2023-09-12T09:52:05;18.30;74.20
21580;DHT22;10951;59.656;9.666;2023-09-12T09:54:33;18.20;75.60
21580;DHT22;10951;59.656;9.666;2023-09-12T09:57:00;18.20;75.60
21580;DHT22;10951;59.656;9.666;2023-09-12T09:59:27;18.30;74.00
21580;DHT22;10951;59.656;9.666;2023-09-12T10:01:59;18.30;71.90
21580;DHT22;10951;59.656;9.666;2023-09-12T10:04:29;18.30;71.60
21580;DHT22;10951;59.656;9.666;2023-09-12T10:07:10;18.30;68.10
21580;DHT22;10951;59.656;9.666;2023-09-12T10:09:38;18.30;68.30
21580;DHT22;10951;59.656;9.666;2023-09-12T10:12:06;18.20;69.90
21580;DHT22;10951;59.656;9.666;2023-09-12T10:14:33;18.20;68.70
21580;DHT22;10951;59.656;9.666;2023-09-12T10:17:02;18.30;67.40
21580;DHT22;10951;59.656;9.666;2023-09-12T10:19:49;18.40;68.30
21580;DHT22;10951;59.656;9.666;2023-09-12T10:22:21;18.50;66.60
21580;DHT22;10951;59.656;9.666;2023-09-12T10:24:52;18.60;69.00
21580;DHT22;10951;59.656;9.666;2023-09-12T10:27:22;18.70;67.10
21580;DHT22;10951;59.656;9.666;2023-09-12T10:29:51;18.90;68.70
21580;DHT22;10951;59.656;9.666;2023-09-12T10:32:20;19.10;66.60
21580;DHT22;10951;59.656;9.666;2023-09-12T10:34:49;19.10;63.50
21580;DHT22;10951;59.656;9.666;2023-09-12T10:37:19;19.20;63.00
21580;DHT22;10951;59.656;9.666;2023-09-12T10:39:47;19.20;63.90
21580;DHT22;10951;59.656;9.666;2023-09-12T10:42:17;19.40;66.00
21580;DHT22;10951;59.656;9.666;2023-09-12T10:44:46;19.50;67.80
21580;DHT22;10951;59.656;9.666;2023-09-12T10:47:14;19.60;66.20
21580;DHT22;10951;59.656;9.666;2023-09-12T10:49:44;19.60;63.00
21580;DHT22;10951;59.656;9.666;2023-09-12T10:52:24;19.70;65.10
21580;DHT22;10951;59.656;9.666;2023-09-12T10:54:51;19.60;59.60
21580;DHT22;10951;59.656;9.666;2023-09-12T10:57:19;19.60;63.00
21580;DHT22;10951;59.656;9.666;2023-09-12T11:02:33;19.50;60.30
21580;DHT22;10951;59.656;9.666;2023-09-12T11:05:06;19.50;64.00
21580;DHT22;10951;59.656;9.666;2023-09-12T11:07:43;19.60;62.50
21580;DHT22;10951;59.656;9.666;2023-09-12T11:12:51;19.80;59.10
21580;DHT22;10951;59.656;9.666;2023-09-12T11:15:23;19.80;58.80
21580;DHT22;10951;59.656;9.666;2023-09-12T11:20:52;19.80;61.50
21580;DHT22;10951;59.656;9.666;2023-09-12T11:23:20;19.80;61.30
21580;DHT22;10951;59.656;9.666;2023-09-12T11:25:47;19.90;59.90
21580;DHT22;10951;59.656;9.666;2023-09-12T11:28:15;20.00;58.10
21580;DHT22;10951;59.656;9.666;2023-09-12T11:30:56;20.10;60.30
21580;DHT22;10951;59.656;9.666;2023-09-12T11:33:25;20.10;58.00
21580;DHT22;10951;59.656;9.666;2023-09-12T11:35:54;20.00;59.50
21580;DHT22;10951;59.656;9.666;2023-09-12T11:38:29;20.00;58.40
21580;DHT22;10951;59.656;9.666;2023-09-12T11:41:00;20.20;61.10
21580;DHT22;10951;59.656;9.666;2023-09-12T11:43:28;20.20;59.50
21580;DHT22;10951;59.656;9.666;2023-09-12T11:45:56;20.20;58.00
21580;DHT22;10951;59.656;9.666;2023-09-12T11:48:24;20.20;57.30
21580;DHT22;10951;59.656;9.666;2023-09-12T11:50:53;20.20;57.40
21580;DHT22;10951;59.656;9.666;2023-09-12T11:53:25;20.20;57.40
21580;DHT22;10951;59.656;9.666;2023-09-12T11:55:58;20.30;57.50
21580;DHT22;10951;59.656;9.666;2023-09-12T11:58:26;20.40;56.80
21580;DHT22;10951;59.656;9.666;2023-09-12T12:00:56;20.30;55.60
21580;DHT22;10951;59.656;9.666;2023-09-12T12:03:25;20.30;55.70
21580;DHT22;10951;59.656;9.666;2023-09-12T12:05:55;20.30;56.60
21580;DHT22;10951;59.656;9.666;2023-09-12T12:08:23;20.30;55.40
21580;DHT22;10951;59.656;9.666;2023-09-12T12:10:53;20.40;55.70
21580;DHT22;10951;59.656;9.666;2023-09-12T12:13:21;20.50;56.10
21580;DHT22;10951;59.656;9.666;2023-09-12T12:15:50;20.50;55.70
21580;DHT22;10951;59.656;9.666;2023-09-12T12:18:17;20.60;56.10
21580;DHT22;10951;59.656;9.666;2023-09-12T12:20:45;20.70;55.50
21580;DHT22;10951;59.656;9.666;2023-09-12T12:23:12;20.60;52.40
21580;DHT22;10951;59.656;9.666;2023-09-12T12:25:39;20.70;55.50
21580;DHT22;10951;59.656;9.666;2023-09-12T12:28:07;20.70;55.80
21580;DHT22;10951;59.656;9.666;2023-09-12T12:30:35;20.70;54.60
21580;DHT22;10951;59.656;9.666;2023-09-12T12:33:07;20.70;54.80
21580;DHT22;10951;59.656;9.666;2023-09-12T12:36:04;20.70;54.50
21580;DHT22;10951;59.656;9.666;2023-09-12T12:38:37;20.70;54.80
21580;DHT22;10951;59.656;9.666;2023-09-12T12:41:26;20.70;54.40
21580;DHT22;10951;59.656;9.666;2023-09-12T12:44:02;20.70;54.90
21580;DHT22;10951;59.656;9.666;2023-09-12T12:46:31;20.60;55.60
21580;DHT22;10951;59.656;9.666;2023-09-12T12:48:58;20.40;55.40
21580;DHT22;10951;59.656;9.666;2023-09-12T12:51:26;20.20;55.30
21580;DHT22;10951;59.656;9.666;2023-09-12T12:53:54;20.10;55.00
21580;DHT22;10951;59.656;9.666;2023-09-12T12:56:29;20.10;55.40
21580;DHT22;10951;59.656;9.666;2023-09-12T12:59:00;20.00;56.00
21580;DHT22;10951;59.656;9.666;2023-09-12T13:01:30;20.00;56.60
21580;DHT22;10951;59.656;9.666;2023-09-12T13:03:58;19.90;56.60
21580;DHT22;10951;59.656;9.666;2023-09-12T13:06:25;19.90;56.20
21580;DHT22;10951;59.656;9.666;2023-09-12T13:08:54;20.10;54.40
21580;DHT22;10951;59.656;9.666;2023-09-12T13:11:24;20.20;55.80
21580;DHT22;10951;59.656;9.666;2023-09-12T13:13:51;20.40;54.80
21580;DHT22;10951;59.656;9.666;2023-09-12T13:16:19;20.60;53.70
21580;DHT22;10951;59.656;9.666;2023-09-12T13:18:46;20.70;53.40
21580;DHT22;10951;59.656;9.666;2023-09-12T13:21:13;20.80;52.70
21580;DHT22;10951;59.656;9.666;2023-09-12T13:23:40;21.00;53.40
21580;DHT22;10951;59.656;9.666;2023-09-12T13:26:09;21.10;53.00
21580;DHT22;10951;59.656;9.666;2023-09-12T13:28:37;21.10;51.70
21580;DHT22;10951;59.656;9.666;2023-09-12T13:31:04;21.20;50.80
21580;DHT22;10951;59.656;9.666;2023-09-12T13:33:31;21.30;50.40
21580;DHT22;10951;59.656;9.666;2023-09-12T13:35:58;21.30;49.50
21580;DHT22;10951;59.656;9.666;2023-09-12T13:38:26;21.40;52.20
21580;DHT22;10951;59.656;9.666;2023-09-12T13:40:53;21.40;50.70
21580;DHT22;10951;59.656;9.666;2023-09-12T13:43:20;21.50;50.50
21580;DHT22;10951;59.656;9.666;2023-09-12T13:45:47;21.40;51.20
21580;DHT22;10951;59.656;9.666;2023-09-12T13:48:14;21.30;51.40
21580;DHT22;10951;59.656;9.666;2023-09-12T13:50:41;21.30;51.50
21580;DHT22;10951;59.656;9.666;2023-09-12T13:53:10;21.40;51.60
21580;DHT22;10951;59.656;9.666;2023-09-12T13:55:37;21.30;51.50
21580;DHT22;10951;59.656;9.666;2023-09-12T13:58:24;21.20;50.20
21580;DHT22;10951;59.656;9.666;2023-09-12T14:01:02;21.10;51.70
21580;DHT22;10951;59.656;9.666;2023-09-12T14:03:30;21.00;50.90
21580;DHT22;10951;59.656;9.666;2023-09-12T14:05:59;21.00;51.70
21580;DHT22;10951;59.656;9.666;2023-09-12T14:08:26;21.00;50.40
21580;DHT22;10951;59.656;9.666;2023-09-12T14:10:54;21.00;51.10
21580;DHT22;10951;59.656;9.666;2023-09-12T14:13:22;21.00;50.10
21580;DHT22;10951;59.656;9.666;2023-09-12T14:15:50;21.00;50.80
21580;DHT22;10951;59.656;9.666;2023-09-12T14:18:18;21.00;51.10
21580;DHT22;10951;59.656;9.666;2023-09-12T14:20:47;21.00;50.60
21580;DHT22;10951;59.656;9.666;2023-09-12T14:23:15;20.90;51.70
21580;DHT22;10951;59.656;9.666;2023-09-12T14:25:43;20.80;51.60
21580;DHT22;10951;59.656;9.666;2023-09-12T14:28:12;20.60;51.90
21580;DHT22;10951;59.656;9.666;2023-09-12T14:30:41;20.40;51.90
21580;DHT22;10951;59.656;9.666;2023-09-12T14:33:12;20.30;52.50
21580;DHT22;10951;59.656;9.666;2023-09-12T14:35:43;20.40;52.30
21580;DHT22;10951;59.656;9.666;2023-09-12T14:38:10;20.40;52.50
21580;DHT22;10951;59.656;9.666;2023-09-12T14:40:37;20.40;50.70
21580;DHT22;10951;59.656;9.666;2023-09-12T14:43:09;20.40;51.50
21580;DHT22;10951;59.656;9.666;2023-09-12T14:45:36;20.50;52.10
21580;DHT22;10951;59.656;9.666;2023-09-12T14:48:04;20.50;50.60
21580;DHT22;10951;59.656;9.666;2023-09-12T14:50:32;20.50;50.80
21580;DHT22;10951;59.656;9.666;2023-09-12T14:53:09;20.40;50.70
21580;DHT22;10951;59.656;9.666;2023-09-12T14:55:36;20.30;50.70
21580;DHT22;10951;59.656;9.666;2023-09-12T14:58:03;20.30;50.10
21580;DHT22;10951;59.656;9.666;2023-09-12T15:00:31;20.30;49.90
21580;DHT22;10951;59.656;9.666;2023-09-12T15:03:00;20.30;51.00
21580;DHT22;10951;59.656;9.666;2023-09-12T15:05:28;20.40;50.90
21580;DHT22;10951;59.656;9.666;2023-09-12T15:07:55;20.40;49.80
21580;DHT22;10951;59.656;9.666;2023-09-12T15:10:22;20.40;48.80
21580;DHT22;10951;59.656;9.666;2023-09-12T15:12:49;20.30;48.20
21580;DHT22;10951;59.656;9.666;2023-09-12T15:15:17;20.30;48.90
21580;DHT22;10951;59.656;9.666;2023-09-12T15:17:44;20.30;48.30
21580;DHT22;10951;59.656;9.666;2023-09-12T15:20:11;20.30;48.70
21580;DHT22;10951;59.656;9.666;2023-09-12T15:22:38;20.30;48.20
21580;DHT22;10951;59.656;9.666;2023-09-12T15:25:05;20.30;48.00
21580;DHT22;10951;59.656;9.666;2023-09-12T15:27:33;20.10;46.60
21580;DHT22;10951;59.656;9.666;2023-09-12T15:30:04;20.10;48.20
21580;DHT22;10951;59.656;9.666;2023-09-12T15:32:32;20.10;47.50
21580;DHT22;10951;59.656;9.666;2023-09-12T15:35:00;20.10;47.70
21580;DHT22;10951;59.656;9.666;2023-09-12T15:37:30;20.20;46.90
21580;DHT22;10951;59.656;9.666;2023-09-12T15:39:57;20.20;48.10
21580;DHT22;10951;59.656;9.666;2023-09-12T15:42:24;20.10;46.80
21580;DHT22;10951;59.656;9.666;2023-09-12T15:45:02;20.10;47.40
21580;DHT22;10951;59.656;9.666;2023-09-12T15:47:30;20.00;45.60
21580;DHT22;10951;59.656;9.666;2023-09-12T15:49:58;20.00;45.60